Big Bear Lake, CA

8:39 AM PDT on April 25, 2015 (GMT -0700)
Big Bear City | | Change Station
CLOSE
Current Station
Airport
Location: Big Bear City,
Elevation: 6752 ft
Nearby Weather Stations
Active Advisory: Wind Advisory Active Notice: Record Report

Elev 6752 ft 34.26 °N, 116.86 °W | Updated 24 minutes ago

Overcast
Overcast
36 °F
Feels Like 31 °F
N
6
Wind Variable Wind from WSW

Today
High -- | Low -- °F
--% Chance of Precip.
Yesterday
High -- | Low -- °F
Precip. -- in
6:04 AM 7:26 PM
Waxing Crescent, 47% visible
Pressure 29.97 in
Visibility 10.0 miles
Clouds Scattered Clouds 3500 ft
Mostly Cloudy 4100 ft
Overcast 5500 ft
Windchill 31 °F
Dew Point 32 °F
Humidity 87%
Rainfall 0.00 in
Snow Depth Not available.
UV 1 out of 12
Pollen 6.10 out of 12
Air Quality Not available.
Flu Activity Sporadic
METAR KL35 251515Z AUTO 24005KT 10SM SCT035 BKN041 OVC055 02/00 A2997 RMK AO2

More Conditions Fewer Conditions

Pressure 29.97 in
Visibility 10.0 miles
Clouds Scattered Clouds 3500 ft
Mostly Cloudy 4100 ft
Overcast 5500 ft
Windchill 31 °F
Dew Point 32 °F
Humidity 87%
Rainfall 0.00 in
Snow Depth Not available.
UV 1 out of 12
Pollen 6.10 out of 12
Air Quality Not available.
Flu Activity Sporadic
METAR KL35 251515Z AUTO 24005KT 10SM SCT035 BKN041 OVC055 02/00 A2997 RMK AO2

More Conditions Fewer Conditions

10-Day Weather Forecast

Almanac

Astronomy

Apr. 25, 2015 Rise Set
Actual Time
Civil Twilight
Nautical Twilight
Astronomical Twilight
Moon
Length of Visible Light
Length of Day
Tomorrow will be .
, % of the Moon is Illuminated

Today's Extremes

State Highs State Lows

Community

WunderPhotos

Upload Photos

1,816,714 photos uploaded!

WunderBlogs® & News

Nearby

Air Quality

  Air Quality AQ Index Pollutant
Not available.

Snow Depth

Station Depth Elevation

Earthquake Activity

City Distance Mag. Time & Date
Minimum magnitude displayed is 2.5.

Coastal Water Temperatures

Place Temperature

Stations

Nearby Weather Stations

Station Location Temp. Windchill Dew Point Humidity Wind Precip. Elev Updated Type
                   
Wind Advisory
Statement as of 3:17 AM PDT on April 25, 2015

... Wind Advisory remains in effect from noon today to 10 PM PDT
this evening...

* winds... areas of west winds 25 to 35 mph with gusts to 55 mph.
Isolated gusts to 65 mph.

* Timing... strongest winds during the late afternoon through the
evening... diminishing overnight.

* Location... near the Mountain Ridge tops and along the Desert
Mountain slopes.

* Impacts... strong winds will make travel hazardous for high
profile vehicles and could cause travel disruptions.

* Outlook... winds will begin to weaken late Saturday night.

Precautionary/preparedness actions...

A Wind Advisory means that winds of 35 mph are expected. Winds
this strong can make driving difficult... especially for high
profile vehicles. Use extra caution.



For a detailed map of the hazard: